createdAt,value
2022-10-11T00:00:36.957Z,11.80
2022-10-11T00:03:24.495Z,11.60
2022-10-11T00:05:54.088Z,11.10
2022-10-11T00:08:22.072Z,11.60
2022-10-11T00:10:57.402Z,12.10
2022-10-11T00:13:25.338Z,10.60
2022-10-11T00:15:53.655Z,10.80
2022-10-11T00:18:21.543Z,11.10
2022-10-11T00:20:49.285Z,11.60
2022-10-11T00:23:17.152Z,10.90
2022-10-11T00:25:44.833Z,11.20
2022-10-11T00:28:12.526Z,10.90
2022-10-11T00:30:42.165Z,11.10
2022-10-11T00:33:10.260Z,11.30
2022-10-11T00:35:40.269Z,10.90
2022-10-11T00:38:08.547Z,11.10
2022-10-11T00:40:36.616Z,10.60
2022-10-11T00:43:04.383Z,11.00
2022-10-11T00:45:33.088Z,10.60
2022-10-11T00:48:03.491Z,10.40
2022-10-11T00:50:33.405Z,11.50
2022-10-11T00:53:03.114Z,10.20
2022-10-11T00:55:34.360Z,10.60
2022-10-11T00:58:02.128Z,10.30
2022-10-11T01:00:29.957Z,11.10
2022-10-11T01:02:58.471Z,10.30
2022-10-11T01:05:29.524Z,10.00
2022-10-11T01:07:59.118Z,10.70
2022-10-11T01:10:27.806Z,10.00
2022-10-11T01:12:55.570Z,9.50
2022-10-11T01:15:27.023Z,10.20
2022-10-11T01:17:54.575Z,10.30
2022-10-11T01:20:41.823Z,9.40
2022-10-11T01:23:28.501Z,9.70
2022-10-11T01:26:19.555Z,9.10
2022-10-11T01:29:07.758Z,9.80
2022-10-11T01:31:47.503Z,9.60
2022-10-11T01:34:18.701Z,9.30
2022-10-11T01:36:55.952Z,9.00
2022-10-11T01:41:53.608Z,8.10
2022-10-11T01:44:23.090Z,8.50
2022-10-11T01:46:51.640Z,9.00
2022-10-11T01:49:19.253Z,9.10
2022-10-11T01:51:49.041Z,8.40
2022-10-11T01:54:56.679Z,9.20
2022-10-11T01:57:34.681Z,8.80
2022-10-11T02:00:14.686Z,8.80
2022-10-11T02:03:01.817Z,9.20
2022-10-11T02:05:39.119Z,8.90
2022-10-11T02:10:37.926Z,8.30
2022-10-11T02:13:05.791Z,8.50
2022-10-11T02:15:34.317Z,9.00
2022-10-11T02:18:04.491Z,8.60
2022-10-11T02:20:33.183Z,8.60
2022-10-11T02:23:06.264Z,8.00
2022-10-11T02:25:35.761Z,8.30
2022-10-11T02:28:06.354Z,7.90
2022-10-11T02:30:34.878Z,7.90
2022-10-11T02:33:03.565Z,8.20
2022-10-11T02:35:35.848Z,7.50
2022-10-11T02:38:13.428Z,7.80
2022-10-11T02:40:44.818Z,8.10
2022-10-11T02:43:24.100Z,8.20
2022-10-11T02:45:56.379Z,7.90
2022-10-11T02:48:25.372Z,8.00
2022-10-11T02:50:53.855Z,8.60
2022-10-11T02:53:22.128Z,8.00
2022-10-11T02:55:50.973Z,8.20
2022-10-11T02:58:18.700Z,8.30
2022-10-11T03:00:46.446Z,8.30
2022-10-11T03:03:14.122Z,8.40
2022-10-11T03:05:41.869Z,8.50
2022-10-11T03:08:10.743Z,8.80
2022-10-11T03:10:39.140Z,7.80
2022-10-11T03:13:07.421Z,7.80
2022-10-11T03:15:35.314Z,8.20
2022-10-11T03:18:02.939Z,8.40
2022-10-11T03:20:31.029Z,9.10
2022-10-11T03:22:59.115Z,12.50
2022-10-11T03:25:26.847Z,11.50
2022-10-11T03:27:54.808Z,9.00
2022-10-11T03:30:22.581Z,8.40
2022-10-11T03:32:50.199Z,10.40
2022-10-11T03:35:18.307Z,9.60
2022-10-11T03:37:46.020Z,9.90
2022-10-11T03:40:15.066Z,9.10
2022-10-11T03:42:42.657Z,8.40
2022-10-11T03:45:10.804Z,8.80
2022-10-11T03:47:39.261Z,9.20
2022-10-11T03:50:08.211Z,8.90
2022-10-11T03:52:35.931Z,8.90
2022-10-11T03:55:03.902Z,9.00
2022-10-11T03:57:31.661Z,8.70
2022-10-11T03:59:59.343Z,8.60
2022-10-11T04:02:26.984Z,8.50
2022-10-11T04:04:55.506Z,8.40
2022-10-11T04:07:23.850Z,9.00
2022-10-11T04:09:52.234Z,8.70
2022-10-11T04:12:20.146Z,8.40
2022-10-11T04:14:47.923Z,8.90
2022-10-11T04:17:15.709Z,8.30
2022-10-11T04:19:43.687Z,7.90
2022-10-11T04:22:11.388Z,20.30
2022-10-11T04:24:38.990Z,10.70
2022-10-11T04:27:06.628Z,9.20
2022-10-11T04:29:34.271Z,8.70
2022-10-11T04:32:01.891Z,8.70
2022-10-11T04:34:29.983Z,8.40
2022-10-11T04:36:57.766Z,8.50
2022-10-11T04:39:25.595Z,8.20
2022-10-11T04:41:53.458Z,8.10
2022-10-11T04:44:21.165Z,8.20
2022-10-11T04:46:48.873Z,8.70
2022-10-11T04:49:16.430Z,8.70
2022-10-11T04:51:44.098Z,8.80
2022-10-11T04:54:11.862Z,7.20
2022-10-11T04:56:39.568Z,8.00
2022-10-11T04:59:07.290Z,7.40
2022-10-11T05:01:35.554Z,8.10
2022-10-11T05:04:03.493Z,7.80
2022-10-11T05:06:31.807Z,7.50
2022-10-11T05:09:00.986Z,8.30
2022-10-11T05:11:29.280Z,7.60
2022-10-11T05:13:57.001Z,7.90
2022-10-11T05:16:25.015Z,7.70
2022-10-11T05:18:52.778Z,8.00
2022-10-11T05:21:22.512Z,7.50
2022-10-11T05:23:51.171Z,7.60
2022-10-11T05:26:19.342Z,8.10
2022-10-11T05:28:47.360Z,8.60
2022-10-11T05:31:16.106Z,8.80
2022-10-11T05:33:43.873Z,9.10
2022-10-11T05:36:11.987Z,9.20
2022-10-11T05:38:39.799Z,8.50
2022-10-11T05:41:09.238Z,8.40
2022-10-11T05:43:37.170Z,7.80
2022-10-11T05:46:05.891Z,7.90
2022-10-11T05:48:34.038Z,7.40
2022-10-11T05:51:06.400Z,7.20
2022-10-11T05:53:34.171Z,7.40
2022-10-11T05:56:02.580Z,7.60
2022-10-11T05:58:31.430Z,8.20
2022-10-11T06:00:59.330Z,7.60
2022-10-11T06:03:27.172Z,8.40
2022-10-11T06:05:57.127Z,11.70
2022-10-11T06:08:25.527Z,9.70
2022-10-11T06:10:53.335Z,8.70
2022-10-11T06:13:21.302Z,8.50
2022-10-11T06:15:49.054Z,9.20
2022-10-11T06:18:16.714Z,9.90
2022-10-11T06:20:44.489Z,9.50
2022-10-11T06:23:12.347Z,8.80
2022-10-11T06:25:40.310Z,9.50
2022-10-11T06:28:08.242Z,8.10
2022-10-11T06:30:35.929Z,7.30
2022-10-11T06:33:04.995Z,7.30
2022-10-11T06:35:32.936Z,7.50
2022-10-11T06:38:00.780Z,6.90
2022-10-11T06:40:28.736Z,7.20
2022-10-11T06:42:56.817Z,6.50
2022-10-11T06:45:24.468Z,6.60
2022-10-11T06:47:52.950Z,6.00
2022-10-11T06:50:40.611Z,5.60
2022-10-11T06:53:08.963Z,5.60
2022-10-11T06:55:37.353Z,5.50
2022-10-11T06:58:05.213Z,5.10
2022-10-11T07:00:32.964Z,5.10
2022-10-11T07:03:01.069Z,5.20
2022-10-11T07:05:31.874Z,4.70
2022-10-11T07:07:59.633Z,4.80
2022-10-11T07:10:27.602Z,4.50
2022-10-11T07:12:55.299Z,4.40
2022-10-11T07:15:23.015Z,4.30
2022-10-11T07:17:52.777Z,4.10
2022-10-11T07:20:20.337Z,4.10
2022-10-11T07:22:48.160Z,4.10
2022-10-11T07:25:15.924Z,3.90
2022-10-11T07:27:43.888Z,3.80
2022-10-11T07:30:11.879Z,3.70
2022-10-11T07:32:40.244Z,4.10
2022-10-11T07:35:08.207Z,3.50
2022-10-11T07:37:35.874Z,3.70
2022-10-11T07:40:03.978Z,3.10
2022-10-11T07:42:33.137Z,3.50
2022-10-11T07:45:00.797Z,3.30
2022-10-11T07:47:28.665Z,4.30
2022-10-11T07:49:56.843Z,3.10
2022-10-11T07:52:24.807Z,3.10
2022-10-11T07:54:52.773Z,3.20
2022-10-11T07:57:20.583Z,3.30
2022-10-11T07:59:50.338Z,2.80
2022-10-11T08:02:19.498Z,3.00
2022-10-11T08:04:47.223Z,3.30
2022-10-11T08:07:14.964Z,3.50
2022-10-11T08:09:42.667Z,3.20
2022-10-11T08:12:10.414Z,3.00
2022-10-11T08:14:38.277Z,2.90
2022-10-11T08:17:06.161Z,3.70
2022-10-11T08:19:34.198Z,3.20
2022-10-11T08:22:02.051Z,2.80
2022-10-11T08:24:31.767Z,3.10
2022-10-11T08:27:02.533Z,3.40
2022-10-11T08:29:31.094Z,3.30
2022-10-11T08:31:59.045Z,3.50
2022-10-11T08:34:27.377Z,3.20
2022-10-11T08:36:55.201Z,3.10
2022-10-11T08:39:23.373Z,3.10
2022-10-11T08:42:14.609Z,2.60
2022-10-11T08:45:10.177Z,2.70
2022-10-11T08:47:37.874Z,2.40
2022-10-11T08:50:07.738Z,2.90
2022-10-11T08:52:56.245Z,2.50
2022-10-11T08:55:44.263Z,3.00
2022-10-11T08:58:14.363Z,2.90
2022-10-11T09:00:42.864Z,3.00
2022-10-11T09:03:22.604Z,2.60
2022-10-11T09:06:09.477Z,2.20
2022-10-11T09:08:49.987Z,3.10
2022-10-11T09:11:36.632Z,2.40
2022-10-11T09:14:12.911Z,2.30
2022-10-11T09:16:49.430Z,2.60
2022-10-11T09:19:16.978Z,2.40
2022-10-11T09:21:51.869Z,2.10
2022-10-11T09:24:26.296Z,2.50
2022-10-11T09:26:54.002Z,2.70
2022-10-11T09:29:31.304Z,2.10
2022-10-11T09:31:59.035Z,2.70
2022-10-11T09:34:32.650Z,2.00
2022-10-11T09:37:06.299Z,2.30
2022-10-11T09:39:36.065Z,2.40
2022-10-11T09:42:03.822Z,2.10
2022-10-11T09:44:37.869Z,2.00
2022-10-11T09:47:06.719Z,2.20
2022-10-11T09:49:37.554Z,2.20
2022-10-11T09:52:07.364Z,1.90
2022-10-11T09:54:42.603Z,1.80
2022-10-11T09:57:21.328Z,1.70
2022-10-11T10:00:00.371Z,1.50
2022-10-11T10:02:29.249Z,2.10
2022-10-11T10:04:59.465Z,1.70
2022-10-11T10:07:29.072Z,1.60
2022-10-11T10:09:57.145Z,1.80
2022-10-11T10:12:27.259Z,1.70
2022-10-11T10:15:13.970Z,1.90
2022-10-11T10:17:47.976Z,2.30
2022-10-11T10:20:24.137Z,1.90
2022-10-11T10:22:52.002Z,1.60
2022-10-11T10:25:25.768Z,1.30
2022-10-11T10:27:58.699Z,1.90
2022-10-11T10:30:26.944Z,1.40
2022-10-11T10:33:04.461Z,1.90
2022-10-11T10:38:05.821Z,1.80
2022-10-11T10:40:36.455Z,1.70
2022-10-11T10:43:04.259Z,1.80
2022-10-11T10:45:37.452Z,1.50
2022-10-11T10:48:10.933Z,1.70
2022-10-11T10:50:41.638Z,1.80
2022-10-11T10:53:18.233Z,1.50
2022-10-11T10:55:48.336Z,1.90
2022-10-11T10:58:45.480Z,1.30
2022-10-11T11:01:13.143Z,1.70
2022-10-11T11:03:46.913Z,1.70
2022-10-11T11:06:26.892Z,1.70
2022-10-11T11:09:03.252Z,1.10
2022-10-11T11:11:31.860Z,1.30
2022-10-11T11:14:06.199Z,1.60
2022-10-11T11:16:33.866Z,2.00
2022-10-11T11:19:01.491Z,2.30
2022-10-11T11:21:32.724Z,1.60
2022-10-11T11:24:00.429Z,1.60
2022-10-11T11:26:38.690Z,1.40
2022-10-11T11:29:23.464Z,1.60
2022-10-11T11:32:00.398Z,1.60
2022-10-11T11:37:06.726Z,1.20
2022-10-11T11:39:37.558Z,1.40
2022-10-11T11:42:11.978Z,1.70
2022-10-11T11:44:42.914Z,1.70
2022-10-11T11:47:19.243Z,1.60
2022-10-11T11:49:55.138Z,1.50
2022-10-11T11:52:44.200Z,1.80
2022-10-11T11:55:19.847Z,1.50
2022-10-11T11:57:53.601Z,1.50
2022-10-11T12:00:24.187Z,1.40
2022-10-11T12:03:03.745Z,1.50
2022-10-11T12:05:33.524Z,1.80
2022-10-11T12:08:02.932Z,1.80
2022-10-11T12:10:32.665Z,1.30
2022-10-11T12:13:03.374Z,1.40
2022-10-11T12:15:32.160Z,1.90
2022-10-11T12:18:02.503Z,1.60
2022-10-11T12:20:31.888Z,1.60
2022-10-11T12:23:01.641Z,1.70
2022-10-11T12:25:34.069Z,1.30
2022-10-11T12:28:21.973Z,1.90
2022-10-11T12:30:54.010Z,2.10
2022-10-11T12:33:24.874Z,1.80
2022-10-11T12:35:56.212Z,2.50
2022-10-11T12:38:28.945Z,2.50
2022-10-11T12:41:18.367Z,2.00
2022-10-11T12:43:49.383Z,1.30
2022-10-11T12:46:29.191Z,1.40
2022-10-11T12:49:13.337Z,1.20
2022-10-11T12:51:46.020Z,1.00
2022-10-11T12:54:36.112Z,1.40
2022-10-11T12:57:23.235Z,1.30
2022-10-11T12:59:51.509Z,1.50
2022-10-11T13:02:38.266Z,1.60
2022-10-11T13:05:26.654Z,1.20
2022-10-11T13:07:55.867Z,1.20
2022-10-11T13:10:28.951Z,1.20
2022-10-11T13:13:00.185Z,1.30
2022-10-11T13:15:28.649Z,1.60
2022-10-11T13:18:00.535Z,1.50
2022-10-11T13:20:36.322Z,1.50
2022-10-11T13:23:18.440Z,1.60
2022-10-11T13:25:46.549Z,1.40
2022-10-11T13:28:15.177Z,1.50
2022-10-11T13:30:45.354Z,1.70
2022-10-11T13:33:21.511Z,1.60
2022-10-11T13:35:50.093Z,1.70
2022-10-11T13:38:24.245Z,1.50
2022-10-11T13:40:52.439Z,1.70
2022-10-11T13:43:22.191Z,1.50
2022-10-11T13:45:49.952Z,1.70
2022-10-11T13:48:18.743Z,1.80
2022-10-11T13:51:05.450Z,1.70
2022-10-11T13:53:34.051Z,1.60
2022-10-11T13:56:12.756Z,1.40
2022-10-11T13:58:46.815Z,1.10
2022-10-11T14:01:21.170Z,1.30
2022-10-11T14:03:58.951Z,1.40
2022-10-11T14:06:44.222Z,1.70
2022-10-11T14:09:19.126Z,1.30
2022-10-11T14:11:47.771Z,1.70
2022-10-11T14:14:33.171Z,1.10
2022-10-11T14:17:20.064Z,1.50
2022-10-11T14:20:07.324Z,1.60
2022-10-11T14:22:37.965Z,2.20
2022-10-11T14:25:06.595Z,2.00
2022-10-11T14:27:35.078Z,1.50
2022-10-11T14:30:25.691Z,1.60
2022-10-11T14:32:54.370Z,2.10
2022-10-11T14:35:23.525Z,1.80
2022-10-11T14:37:52.449Z,1.90
2022-10-11T14:40:21.972Z,2.00
2022-10-11T14:42:50.377Z,1.60
2022-10-11T14:45:18.811Z,1.70
2022-10-11T14:47:47.094Z,2.00
2022-10-11T14:50:20.738Z,2.30
2022-10-11T14:52:51.324Z,2.10
2022-10-11T14:55:19.393Z,2.30
2022-10-11T14:57:49.293Z,2.10
2022-10-11T15:00:20.424Z,1.30
2022-10-11T15:02:51.183Z,1.30
2022-10-11T15:05:23.364Z,1.20
2022-10-11T15:07:51.657Z,1.50
2022-10-11T15:10:24.711Z,1.60
2022-10-11T15:12:53.511Z,1.50
2022-10-11T15:15:23.832Z,1.40
2022-10-11T15:17:53.944Z,1.40
2022-10-11T15:20:24.980Z,1.50
2022-10-11T15:22:53.119Z,1.30
2022-10-11T15:25:21.738Z,1.70
2022-10-11T15:27:50.014Z,1.70
2022-10-11T15:30:25.432Z,2.40
2022-10-11T15:32:53.836Z,1.60
2022-10-11T15:35:23.222Z,2.00
2022-10-11T15:37:56.233Z,1.50
2022-10-11T15:40:23.995Z,1.90
2022-10-11T15:42:53.141Z,2.40
2022-10-11T15:45:21.923Z,2.60
2022-10-11T15:47:49.939Z,3.20
2022-10-11T15:50:33.991Z,2.30
2022-10-11T15:53:10.745Z,2.90
2022-10-11T15:55:40.671Z,3.20
2022-10-11T15:58:14.887Z,2.30
2022-10-11T16:00:43.730Z,2.10
2022-10-11T16:03:15.640Z,1.90
2022-10-11T16:05:43.730Z,2.00
2022-10-11T16:08:11.373Z,1.80
2022-10-11T16:10:39.752Z,1.50
2022-10-11T16:13:08.362Z,1.40
2022-10-11T16:15:38.973Z,2.00
2022-10-11T16:18:07.652Z,1.70
2022-10-11T16:20:42.590Z,2.20
2022-10-11T16:23:11.227Z,2.60
2022-10-11T16:25:39.264Z,2.80
2022-10-11T16:28:08.171Z,3.20
2022-10-11T16:30:40.937Z,4.10
2022-10-11T16:33:09.350Z,4.30
2022-10-11T16:35:41.240Z,4.60
2022-10-11T16:38:09.311Z,4.50
2022-10-11T16:40:38.508Z,4.20
2022-10-11T16:43:07.885Z,3.90
2022-10-11T16:45:36.157Z,3.30
2022-10-11T16:48:04.565Z,3.70
2022-10-11T16:50:38.386Z,3.20
2022-10-11T16:53:07.776Z,3.60
2022-10-11T16:55:35.742Z,3.50
2022-10-11T16:58:03.656Z,3.00
2022-10-11T17:00:31.668Z,2.90
2022-10-11T17:02:59.547Z,3.50
2022-10-11T17:05:27.416Z,2.70
2022-10-11T17:07:57.481Z,2.50
2022-10-11T17:10:39.708Z,2.20
2022-10-11T17:13:10.917Z,2.40
2022-10-11T17:15:39.855Z,2.10
2022-10-11T17:18:08.770Z,2.10
2022-10-11T17:20:40.045Z,2.70
2022-10-11T17:23:09.610Z,2.20
2022-10-11T17:25:42.498Z,2.20
2022-10-11T17:28:11.224Z,2.10
2022-10-11T17:30:43.249Z,2.30
2022-10-11T17:33:11.214Z,2.10
2022-10-11T17:35:39.291Z,2.40
2022-10-11T17:38:07.969Z,2.00
2022-10-11T17:40:35.795Z,2.00
2022-10-11T17:43:06.509Z,2.20
2022-10-11T17:45:34.531Z,2.30
2022-10-11T17:48:04.967Z,2.10
2022-10-11T17:50:33.340Z,2.50
2022-10-11T17:53:03.041Z,2.70
2022-10-11T17:55:31.529Z,3.20
2022-10-11T17:58:02.493Z,3.00
2022-10-11T18:00:32.332Z,3.70
2022-10-11T18:03:00.678Z,4.30
2022-10-11T18:05:30.196Z,4.60
2022-10-11T18:07:59.290Z,5.30
2022-10-11T18:10:29.903Z,5.50
2022-10-11T18:13:04.313Z,6.50
2022-10-11T18:15:35.645Z,6.50
2022-10-11T18:18:08.247Z,7.10
2022-10-11T18:20:39.250Z,7.70
2022-10-11T18:23:08.880Z,9.10
2022-10-11T18:25:37.804Z,10.30
2022-10-11T18:28:05.944Z,10.40
2022-10-11T18:30:35.250Z,11.20
2022-10-11T18:33:03.930Z,10.90
2022-10-11T18:35:33.479Z,12.50
2022-10-11T18:38:01.908Z,11.40
2022-10-11T18:40:29.988Z,15.10
2022-10-11T18:42:58.254Z,19.30
2022-10-11T18:45:26.249Z,20.00
2022-10-11T18:47:54.398Z,18.10
2022-10-11T18:50:23.703Z,20.40
2022-10-11T18:52:51.724Z,19.70
2022-10-11T18:55:20.465Z,20.40
2022-10-11T18:57:49.422Z,20.30
2022-10-11T19:00:39.467Z,20.10
2022-10-11T19:03:07.092Z,18.20
2022-10-11T19:05:38.449Z,18.90
2022-10-11T19:08:06.410Z,18.90
2022-10-11T19:10:34.923Z,16.90
2022-10-11T19:13:04.637Z,17.60
2022-10-11T19:15:36.595Z,17.50
2022-10-11T19:18:06.456Z,16.00
2022-10-11T19:20:37.516Z,15.40
2022-10-11T19:23:05.878Z,13.00
2022-10-11T19:25:36.955Z,11.10
2022-10-11T19:28:05.006Z,8.90
2022-10-11T19:30:33.431Z,9.10
2022-10-11T19:33:01.348Z,7.90
2022-10-11T19:35:29.110Z,6.90
2022-10-11T19:37:57.104Z,6.00
2022-10-11T19:40:25.069Z,4.90
2022-10-11T19:42:52.780Z,3.80
2022-10-11T19:45:20.566Z,4.00
2022-10-11T19:47:48.499Z,3.60
2022-10-11T19:50:18.716Z,3.50
2022-10-11T19:52:47.876Z,3.60
2022-10-11T19:55:15.974Z,3.70
2022-10-11T19:57:43.916Z,4.10
2022-10-11T20:00:12.278Z,4.60
2022-10-11T20:02:40.245Z,4.40
2022-10-11T20:05:08.426Z,4.60
2022-10-11T20:07:37.110Z,4.70
2022-10-11T20:10:05.255Z,4.50
2022-10-11T20:12:33.924Z,4.50
2022-10-11T20:15:02.236Z,5.00
2022-10-11T20:17:48.533Z,4.50
2022-10-11T20:20:17.867Z,4.00
2022-10-11T20:22:46.022Z,5.30
2022-10-11T20:25:14.084Z,6.70
2022-10-11T20:27:43.897Z,6.00
2022-10-11T20:30:12.583Z,6.00
2022-10-11T20:32:41.312Z,5.50
2022-10-11T20:35:10.581Z,5.10
2022-10-11T20:37:39.353Z,5.80
2022-10-11T20:40:07.437Z,5.20
2022-10-11T20:42:35.120Z,5.10
2022-10-11T20:45:02.848Z,5.30
2022-10-11T20:47:31.230Z,4.70
2022-10-11T20:50:00.114Z,4.30
2022-10-11T20:52:29.157Z,4.60
2022-10-11T20:54:57.172Z,4.50
2022-10-11T20:57:25.777Z,4.70
2022-10-11T20:59:53.634Z,4.90
2022-10-11T21:02:22.108Z,4.80
2022-10-11T21:04:51.482Z,4.50
2022-10-11T21:07:19.479Z,5.40
2022-10-11T21:09:47.347Z,6.60
2022-10-11T21:12:15.736Z,7.30
2022-10-11T21:14:43.727Z,8.30
2022-10-11T21:17:11.790Z,8.20
2022-10-11T21:19:39.950Z,9.10
2022-10-11T21:22:07.905Z,9.40
2022-10-11T21:24:36.780Z,11.10
2022-10-11T21:27:05.476Z,13.40
2022-10-11T21:29:33.365Z,12.30
2022-10-11T21:32:01.105Z,12.10
2022-10-11T21:34:28.801Z,13.20
2022-10-11T21:36:56.749Z,11.50
2022-10-11T21:39:24.498Z,12.00
2022-10-11T21:41:52.807Z,10.90
2022-10-11T21:44:20.640Z,6.60
2022-10-11T21:47:06.161Z,5.50
2022-10-11T21:52:03.902Z,5.80
2022-10-11T21:54:33.298Z,7.30
2022-10-11T21:57:01.482Z,9.40
2022-10-11T21:59:29.555Z,10.30
2022-10-11T22:02:01.632Z,10.10
2022-10-11T22:04:30.318Z,10.40
2022-10-11T22:07:00.390Z,10.00
2022-10-11T22:09:30.139Z,11.40
2022-10-11T22:11:59.629Z,12.10
2022-10-11T22:14:29.232Z,11.70
2022-10-11T22:16:57.508Z,9.90
2022-10-11T22:19:25.585Z,10.50
2022-10-11T22:21:53.462Z,11.70
2022-10-11T22:24:21.432Z,10.40
2022-10-11T22:26:49.319Z,11.60
2022-10-11T22:29:17.362Z,11.80
2022-10-11T22:31:45.413Z,11.60
2022-10-11T22:34:13.697Z,10.90
2022-10-11T22:36:41.672Z,10.60
2022-10-11T22:39:10.453Z,11.10
2022-10-11T22:41:39.992Z,11.90
2022-10-11T22:44:08.343Z,11.40
2022-10-11T22:46:36.714Z,10.70
2022-10-11T22:49:05.194Z,11.60
2022-10-11T22:51:33.086Z,10.80
2022-10-11T22:54:00.820Z,10.30
2022-10-11T22:56:28.891Z,9.10
2022-10-11T22:58:58.426Z,8.50
2022-10-11T23:01:26.264Z,7.40
2022-10-11T23:03:54.301Z,6.30
2022-10-11T23:06:22.063Z,6.50
2022-10-11T23:08:49.813Z,6.90
2022-10-11T23:11:18.238Z,7.70
2022-10-11T23:13:45.894Z,7.40
2022-10-11T23:16:14.071Z,7.10
2022-10-11T23:18:42.420Z,7.60
2022-10-11T23:21:11.033Z,8.10
2022-10-11T23:23:40.042Z,7.60
2022-10-11T23:26:09.295Z,7.30
2022-10-11T23:28:37.649Z,7.90
2022-10-11T23:31:11.602Z,8.10
2022-10-11T23:33:39.648Z,7.90
2022-10-11T23:36:13.187Z,8.10
2022-10-11T23:38:40.840Z,8.90
2022-10-11T23:41:09.013Z,8.90
2022-10-11T23:43:36.680Z,8.10
2022-10-11T23:46:04.518Z,9.10
2022-10-11T23:48:32.206Z,9.20
2022-10-11T23:51:00.094Z,8.60
2022-10-11T23:53:28.464Z,8.70
2022-10-11T23:55:56.907Z,8.40
2022-10-11T23:58:24.691Z,9.20
